Terminal Aerodrome Forecast
Issued by NWS Melbourne, FL

Home | Current Version | Previous Version | Text Only | Print | Product List | Glossary On
Versions: 1 2 3 4 5 6 7 8 9 10 11 12 13 14 15
216
FTUS42 KMLB 231957 AAB
TAFMLB
TAF AMD
KMLB 231957Z 2320/2418 22011KT P6SM VCSH SCT025 BKN040 BKN080
     FM240000 28005KT P6SM FEW009 SCT015 BKN030
     FM240900 36007KT P6SM SCT020 SCT200=

USA.gov is the U.S. government's official web portal to all federal, state and local government web resources and services.